createdAt,value
2024-02-27T00:00:20.407Z,1.10
2024-02-27T00:02:48.475Z,1.00
2024-02-27T00:05:16.713Z,1.23
2024-02-27T00:07:45.141Z,1.00
2024-02-27T00:10:15.285Z,1.10
2024-02-27T00:12:43.444Z,1.10
2024-02-27T00:15:13.249Z,1.27
2024-02-27T00:17:41.333Z,1.17
2024-02-27T00:20:11.366Z,1.20
2024-02-27T00:22:39.674Z,0.90
2024-02-27T00:25:08.898Z,1.23
2024-02-27T00:27:37.010Z,0.87
2024-02-27T00:30:06.595Z,1.40
2024-02-27T00:32:35.996Z,1.07
2024-02-27T00:35:04.400Z,1.03
2024-02-27T00:37:32.478Z,0.97
2024-02-27T00:40:00.769Z,0.80
2024-02-27T00:42:30.156Z,1.00
2024-02-27T00:44:58.573Z,1.10
2024-02-27T00:47:26.707Z,1.00
2024-02-27T00:49:56.100Z,0.87
2024-02-27T00:52:25.045Z,0.90
2024-02-27T00:54:53.070Z,0.80
2024-02-27T00:57:21.185Z,0.73
2024-02-27T00:59:49.223Z,0.87
2024-02-27T01:02:17.286Z,0.73
2024-02-27T01:04:45.295Z,0.80
2024-02-27T01:07:14.864Z,0.60
2024-02-27T01:09:42.966Z,0.90
2024-02-27T01:12:11.071Z,0.80
2024-02-27T01:14:39.112Z,1.40
2024-02-27T01:17:07.624Z,1.10
2024-02-27T01:19:35.720Z,1.17
2024-02-27T01:22:03.942Z,1.73
2024-02-27T01:24:34.424Z,1.83
2024-02-27T01:27:02.823Z,2.47
2024-02-27T01:29:30.878Z,2.23
2024-02-27T01:31:59.229Z,2.80
2024-02-27T01:34:27.462Z,3.03
2024-02-27T01:36:55.598Z,3.00
2024-02-27T01:39:24.119Z,2.90
2024-02-27T01:41:53.483Z,3.00
2024-02-27T01:44:21.491Z,2.87
2024-02-27T01:46:50.238Z,3.13
2024-02-27T01:49:19.041Z,3.50
2024-02-27T01:51:49.590Z,3.20
2024-02-27T01:54:21.369Z,3.00
2024-02-27T01:56:50.918Z,3.00
2024-02-27T01:59:23.369Z,2.80
2024-02-27T02:01:52.835Z,3.23
2024-02-27T02:04:21.168Z,2.90
2024-02-27T02:06:49.616Z,3.27
2024-02-27T02:09:17.690Z,3.10
2024-02-27T02:11:48.252Z,3.10
2024-02-27T02:14:16.475Z,3.30
2024-02-27T02:16:46.077Z,3.00
2024-02-27T02:19:14.523Z,3.23
2024-02-27T02:21:44.720Z,3.13
2024-02-27T02:24:13.241Z,3.37
2024-02-27T02:26:43.256Z,3.13
2024-02-27T02:29:17.789Z,3.83
2024-02-27T02:31:45.869Z,3.23
2024-02-27T02:34:13.960Z,3.00
2024-02-27T02:36:45.078Z,3.17
2024-02-27T02:39:13.307Z,3.80
2024-02-27T02:41:41.452Z,3.70
2024-02-27T02:44:09.602Z,4.00
2024-02-27T02:46:39.778Z,3.30
2024-02-27T02:49:07.950Z,3.80
2024-02-27T02:51:36.373Z,4.10
2024-02-27T02:54:05.847Z,3.27
2024-02-27T02:56:33.991Z,3.90
2024-02-27T02:59:02.043Z,3.50
2024-02-27T03:01:30.162Z,3.20
2024-02-27T03:03:59.554Z,3.80
2024-02-27T03:06:27.784Z,3.40
2024-02-27T03:08:55.884Z,3.33
2024-02-27T03:11:25.331Z,4.07
2024-02-27T03:13:53.447Z,3.60
2024-02-27T03:16:21.483Z,3.67
2024-02-27T03:18:49.601Z,3.70
2024-02-27T03:21:17.684Z,3.80
2024-02-27T03:23:45.783Z,4.07
2024-02-27T03:26:17.731Z,3.40
2024-02-27T03:28:47.100Z,3.67
2024-02-27T03:31:16.994Z,3.63
2024-02-27T03:33:45.243Z,4.10
2024-02-27T03:36:14.243Z,3.67
2024-02-27T03:38:44.021Z,3.83
2024-02-27T03:41:14.553Z,3.73
2024-02-27T03:43:43.623Z,3.87
2024-02-27T03:46:13.267Z,4.23
2024-02-27T03:48:41.700Z,4.30
2024-02-27T03:51:10.085Z,3.97
2024-02-27T03:53:38.177Z,3.93
2024-02-27T03:56:07.310Z,3.93
2024-02-27T03:58:37.230Z,4.17
2024-02-27T04:01:05.851Z,3.60
2024-02-27T04:03:35.337Z,4.23
2024-02-27T04:06:03.558Z,4.23
2024-02-27T04:08:31.725Z,4.60
2024-02-27T04:10:59.860Z,4.70
2024-02-27T04:13:28.126Z,3.97
2024-02-27T04:15:56.135Z,3.93
2024-02-27T04:18:24.594Z,4.07
2024-02-27T04:20:54.272Z,4.93
2024-02-27T04:23:22.356Z,3.83
2024-02-27T04:25:50.443Z,4.20
2024-02-27T04:28:18.488Z,4.50
2024-02-27T04:30:46.661Z,4.47
2024-02-27T04:33:15.030Z,4.87
2024-02-27T04:35:43.182Z,4.27
2024-02-27T04:38:12.985Z,4.30
2024-02-27T04:40:42.582Z,4.23
2024-02-27T04:43:09.638Z,4.47
2024-02-27T04:45:37.676Z,4.73
2024-02-27T04:48:07.975Z,4.40
2024-02-27T04:50:36.223Z,4.83
2024-02-27T04:53:04.735Z,4.70
2024-02-27T04:55:34.133Z,4.43
2024-02-27T04:58:02.508Z,4.60
2024-02-27T05:00:30.635Z,5.73
2024-02-27T05:02:58.782Z,4.80
2024-02-27T05:05:26.839Z,4.83
2024-02-27T05:07:54.869Z,5.60
2024-02-27T05:10:22.932Z,5.20
2024-02-27T05:12:52.321Z,5.83
2024-02-27T05:15:20.356Z,5.60
2024-02-27T05:17:48.511Z,5.90
2024-02-27T05:20:16.975Z,5.53
2024-02-27T05:22:45.134Z,5.93
2024-02-27T05:25:13.316Z,6.10
2024-02-27T05:27:41.392Z,6.20
2024-02-27T05:30:12.506Z,6.07
2024-02-27T05:32:40.640Z,5.90
2024-02-27T05:35:09.678Z,6.67
2024-02-27T05:37:37.816Z,6.83
2024-02-27T05:40:11.682Z,6.00
2024-02-27T05:42:40.013Z,6.60
2024-02-27T05:45:10.923Z,6.37
2024-02-27T05:47:39.026Z,6.97
2024-02-27T05:50:08.648Z,7.03
2024-02-27T05:52:36.713Z,6.97
2024-02-27T05:55:05.421Z,7.37
2024-02-27T05:57:33.529Z,6.57
2024-02-27T06:00:01.655Z,7.53
2024-02-27T06:02:31.072Z,7.30
2024-02-27T06:04:59.561Z,7.50
2024-02-27T06:07:27.660Z,6.83
2024-02-27T06:09:56.396Z,7.30
2024-02-27T06:12:24.486Z,7.43
2024-02-27T06:14:52.736Z,7.77
2024-02-27T06:17:20.906Z,7.07
2024-02-27T06:19:56.425Z,7.97
2024-02-27T06:22:25.005Z,8.10
2024-02-27T06:24:53.498Z,8.20
2024-02-27T06:27:21.602Z,7.70
2024-02-27T06:29:50.278Z,7.77
2024-02-27T06:32:18.761Z,8.03
2024-02-27T06:34:48.958Z,7.70
2024-02-27T06:37:19.978Z,7.27
2024-02-27T06:39:48.542Z,9.00
2024-02-27T06:42:16.714Z,8.70
2024-02-27T06:44:45.112Z,8.17
2024-02-27T06:47:13.181Z,8.20
2024-02-27T06:49:41.397Z,8.63
2024-02-27T06:52:09.888Z,9.50
2024-02-27T06:54:39.338Z,9.43
2024-02-27T06:57:07.477Z,8.43
2024-02-27T06:59:35.569Z,9.53
2024-02-27T07:02:03.623Z,9.07
2024-02-27T07:04:31.767Z,7.83
2024-02-27T07:07:00.151Z,8.90
2024-02-27T07:09:29.565Z,8.83
2024-02-27T07:12:00.315Z,9.10
2024-02-27T07:14:29.066Z,8.63
2024-02-27T07:16:57.358Z,9.07
2024-02-27T07:19:25.517Z,9.53
2024-02-27T07:21:54.072Z,9.17
2024-02-27T07:24:22.593Z,9.57
2024-02-27T07:26:50.660Z,8.33
2024-02-27T07:29:20.573Z,9.33
2024-02-27T07:31:48.718Z,8.83
2024-02-27T07:34:18.377Z,8.80
2024-02-27T07:36:46.594Z,8.90
2024-02-27T07:39:16.445Z,8.47
2024-02-27T07:41:44.549Z,8.17
2024-02-27T07:44:12.651Z,8.77
2024-02-27T07:46:42.069Z,8.00
2024-02-27T07:49:10.872Z,9.17
2024-02-27T07:51:39.144Z,8.67
2024-02-27T07:54:07.379Z,9.00
2024-02-27T07:56:35.509Z,8.90
2024-02-27T07:59:03.597Z,8.47
2024-02-27T08:01:31.994Z,8.23
2024-02-27T08:04:01.589Z,8.23
2024-02-27T08:06:29.912Z,8.63
2024-02-27T08:08:58.133Z,8.93
2024-02-27T08:11:27.403Z,8.57
2024-02-27T08:13:55.706Z,8.37
2024-02-27T08:16:23.842Z,8.77
2024-02-27T08:18:51.998Z,8.37
2024-02-27T08:21:21.546Z,7.93
2024-02-27T08:23:50.013Z,8.90
2024-02-27T08:26:18.082Z,8.47
2024-02-27T08:28:46.189Z,8.60
2024-02-27T08:31:15.338Z,8.60
2024-02-27T08:33:43.831Z,8.80
2024-02-27T08:36:12.038Z,9.03
2024-02-27T08:38:44.885Z,8.77
2024-02-27T08:41:13.022Z,8.60
2024-02-27T08:43:44.081Z,8.50
2024-02-27T08:46:18.660Z,7.43
2024-02-27T08:48:47.180Z,8.33
2024-02-27T08:51:15.518Z,8.30
2024-02-27T08:53:44.949Z,8.00
2024-02-27T08:56:12.981Z,8.17
2024-02-27T08:58:41.029Z,8.27
2024-02-27T09:01:09.134Z,8.23
2024-02-27T09:03:37.295Z,8.60
2024-02-27T09:06:06.583Z,8.47
2024-02-27T09:08:34.841Z,8.83
2024-02-27T09:11:04.353Z,8.53
2024-02-27T09:13:32.419Z,8.93
2024-02-27T09:16:00.490Z,9.07
2024-02-27T09:18:28.809Z,8.27
2024-02-27T09:20:56.865Z,8.73
2024-02-27T09:23:25.116Z,8.20
2024-02-27T09:25:53.155Z,8.57
2024-02-27T09:28:22.546Z,9.33
2024-02-27T09:33:43.331Z,9.07
2024-02-27T09:36:11.807Z,8.80
2024-02-27T09:38:39.843Z,9.13
2024-02-27T09:41:09.156Z,8.73
2024-02-27T09:43:45.186Z,9.27
2024-02-27T09:46:14.784Z,8.30
2024-02-27T09:48:45.044Z,9.17
2024-02-27T09:51:14.798Z,8.57
2024-02-27T09:53:45.239Z,9.30
2024-02-27T09:56:16.278Z,9.70
2024-02-27T09:58:46.562Z,8.50
2024-02-27T10:01:15.388Z,9.20
2024-02-27T10:03:46.936Z,9.60
2024-02-27T10:06:18.590Z,9.10
2024-02-27T10:08:52.704Z,8.67
2024-02-27T10:11:21.098Z,9.40
2024-02-27T10:13:50.601Z,9.03
2024-02-27T10:16:23.705Z,9.47
2024-02-27T10:18:52.175Z,9.13
2024-02-27T10:21:20.897Z,9.67
2024-02-27T10:23:49.151Z,9.73
2024-02-27T10:26:18.236Z,10.33
2024-02-27T10:28:49.578Z,10.40
2024-02-27T10:31:19.891Z,10.30
2024-02-27T10:33:48.470Z,10.57
2024-02-27T10:36:16.707Z,11.17
2024-02-27T10:38:46.109Z,10.80
2024-02-27T10:41:14.152Z,11.03
2024-02-27T10:43:42.371Z,10.07
2024-02-27T10:46:11.074Z,10.07
2024-02-27T10:48:45.213Z,10.37
2024-02-27T10:51:14.567Z,10.47
2024-02-27T10:53:44.133Z,10.17
2024-02-27T10:56:12.183Z,10.07
2024-02-27T10:58:41.196Z,10.33
2024-02-27T11:01:10.694Z,11.47
2024-02-27T11:03:42.574Z,10.80
2024-02-27T11:06:16.488Z,10.07
2024-02-27T11:08:47.736Z,10.37
2024-02-27T11:11:16.757Z,11.17
2024-02-27T11:13:48.930Z,10.40
2024-02-27T11:16:22.272Z,11.20
2024-02-27T11:18:57.670Z,9.97
2024-02-27T11:21:26.563Z,10.53
2024-02-27T11:23:55.442Z,11.70
2024-02-27T11:26:23.719Z,9.57
2024-02-27T11:28:54.660Z,10.93
2024-02-27T11:31:23.512Z,10.87
2024-02-27T11:33:54.563Z,10.70
2024-02-27T11:36:23.813Z,10.07
2024-02-27T11:38:52.797Z,10.13
2024-02-27T11:41:22.866Z,11.60
2024-02-27T11:43:55.914Z,10.37
2024-02-27T11:46:37.211Z,10.57
2024-02-27T11:49:06.953Z,10.70
2024-02-27T11:51:38.914Z,10.43
2024-02-27T11:54:09.940Z,11.13
2024-02-27T11:56:45.824Z,10.13
2024-02-27T11:59:16.102Z,11.33
2024-02-27T12:01:44.218Z,10.90
2024-02-27T12:04:14.272Z,11.03
2024-02-27T12:06:51.703Z,11.67
2024-02-27T12:09:26.291Z,11.50
2024-02-27T12:11:55.219Z,11.00
2024-02-27T12:14:23.339Z,12.07
2024-02-27T12:16:51.355Z,10.63
2024-02-27T12:19:21.855Z,11.20
2024-02-27T12:21:50.411Z,11.03
2024-02-27T12:24:21.582Z,10.80
2024-02-27T12:26:50.787Z,11.60
2024-02-27T12:29:19.297Z,11.13
2024-02-27T12:31:47.805Z,9.63
2024-02-27T12:34:15.936Z,11.00
2024-02-27T12:36:45.373Z,11.27
2024-02-27T12:39:14.006Z,11.67
2024-02-27T12:41:42.354Z,12.40
2024-02-27T12:44:11.318Z,10.97
2024-02-27T12:46:39.891Z,10.97
2024-02-27T12:49:10.105Z,10.77
2024-02-27T12:51:38.880Z,10.37
2024-02-27T12:54:09.565Z,10.30
2024-02-27T12:56:38.604Z,9.97
2024-02-27T12:59:10.669Z,10.60
2024-02-27T13:01:42.634Z,10.47
2024-02-27T13:04:11.245Z,11.70
2024-02-27T13:06:39.529Z,11.13
2024-02-27T13:09:09.022Z,10.57
2024-02-27T13:11:37.179Z,10.53
2024-02-27T13:14:05.332Z,12.00
2024-02-27T13:16:33.369Z,10.70
2024-02-27T13:19:01.877Z,10.30
2024-02-27T13:21:30.767Z,10.53
2024-02-27T13:24:03.700Z,10.97
2024-02-27T13:26:33.181Z,11.13
2024-02-27T13:29:01.946Z,11.17
2024-02-27T13:31:30.435Z,10.90
2024-02-27T13:33:58.590Z,11.93
2024-02-27T13:36:26.702Z,11.53
2024-02-27T13:38:54.790Z,11.47
2024-02-27T13:41:23.713Z,11.33
2024-02-27T13:43:53.116Z,10.73
2024-02-27T13:46:21.161Z,10.63
2024-02-27T13:48:49.241Z,10.60
2024-02-27T13:51:18.105Z,11.00
2024-02-27T13:53:46.229Z,10.40
2024-02-27T13:56:14.355Z,10.37
2024-02-27T13:58:42.446Z,10.40
2024-02-27T14:01:12.018Z,10.13
2024-02-27T14:03:40.427Z,10.77
2024-02-27T14:06:09.082Z,10.20
2024-02-27T14:08:37.207Z,10.20
2024-02-27T14:11:05.747Z,10.57
2024-02-27T14:13:36.359Z,11.20
2024-02-27T14:16:04.865Z,10.97
2024-02-27T14:18:34.568Z,11.23
2024-02-27T14:21:02.831Z,10.60
2024-02-27T14:23:30.878Z,10.33
2024-02-27T14:25:58.947Z,9.40
2024-02-27T14:28:27.531Z,10.57
2024-02-27T14:30:55.717Z,10.67
2024-02-27T14:33:24.158Z,10.17
2024-02-27T14:35:55.081Z,10.10
2024-02-27T14:38:23.171Z,9.70
2024-02-27T14:40:52.008Z,9.10
2024-02-27T14:43:20.073Z,9.70
2024-02-27T14:45:48.280Z,10.10
2024-02-27T14:48:16.597Z,9.60
2024-02-27T14:50:44.892Z,10.03
2024-02-27T14:53:14.842Z,10.20
2024-02-27T14:55:43.785Z,10.17
2024-02-27T14:58:14.696Z,9.10
2024-02-27T15:00:43.007Z,8.70
2024-02-27T15:03:11.291Z,9.13
2024-02-27T15:05:39.521Z,8.63
2024-02-27T15:08:08.588Z,8.00
2024-02-27T15:10:37.992Z,9.10
2024-02-27T15:13:07.684Z,8.63
2024-02-27T15:15:35.811Z,8.97
2024-02-27T15:18:04.818Z,8.40
2024-02-27T15:20:32.972Z,8.87
2024-02-27T15:23:01.040Z,10.67
2024-02-27T15:25:29.079Z,8.60
2024-02-27T15:27:58.457Z,8.97
2024-02-27T15:30:34.732Z,9.57
2024-02-27T15:33:02.912Z,9.73
2024-02-27T15:35:31.038Z,9.43
2024-02-27T15:37:59.375Z,10.20
2024-02-27T15:40:27.643Z,9.80
2024-02-27T15:42:55.862Z,9.77
2024-02-27T15:45:23.967Z,9.73
2024-02-27T15:47:53.872Z,9.53
2024-02-27T15:50:22.091Z,9.70
2024-02-27T15:52:50.146Z,9.03
2024-02-27T15:55:20.500Z,9.37
2024-02-27T15:57:49.322Z,9.13
2024-02-27T16:00:23.947Z,8.20
2024-02-27T16:03:01.282Z,8.63
2024-02-27T16:05:31.113Z,8.50
2024-02-27T16:07:59.381Z,8.47
2024-02-27T16:10:27.648Z,8.63
2024-02-27T16:12:54.830Z,9.57
2024-02-27T16:15:22.980Z,8.77
2024-02-27T16:17:51.063Z,8.70
2024-02-27T16:20:20.508Z,9.17
2024-02-27T16:22:48.563Z,8.10
2024-02-27T16:25:17.213Z,8.73
2024-02-27T16:27:45.347Z,8.03
2024-02-27T16:30:16.197Z,7.87
2024-02-27T16:32:46.439Z,9.40
2024-02-27T16:35:14.842Z,8.80
2024-02-27T16:37:44.186Z,8.37
2024-02-27T16:40:13.749Z,8.27
2024-02-27T16:42:42.465Z,7.60
2024-02-27T16:45:11.062Z,8.83
2024-02-27T16:47:39.836Z,8.03
2024-02-27T16:50:32.909Z,8.10
2024-02-27T16:53:04.355Z,8.13
2024-02-27T16:55:32.781Z,8.53
2024-02-27T16:58:01.815Z,8.23
2024-02-27T17:00:29.904Z,8.37
2024-02-27T17:02:57.962Z,7.07
2024-02-27T17:05:28.023Z,8.07
2024-02-27T17:07:56.058Z,7.50
2024-02-27T17:10:26.547Z,7.30
2024-02-27T17:12:54.840Z,7.47
2024-02-27T17:15:24.185Z,8.33
2024-02-27T17:17:53.150Z,7.97
2024-02-27T17:20:21.631Z,8.63
2024-02-27T17:22:49.730Z,8.50
2024-02-27T17:25:17.948Z,8.40
2024-02-27T17:27:47.375Z,6.97
2024-02-27T17:30:15.991Z,8.83
2024-02-27T17:33:09.386Z,8.10
2024-02-27T17:35:37.687Z,7.37
2024-02-27T17:38:10.430Z,6.97
2024-02-27T17:40:38.471Z,7.40
2024-02-27T17:43:07.852Z,7.63
2024-02-27T17:45:42.504Z,7.67
2024-02-27T17:48:14.349Z,8.47
2024-02-27T17:50:43.019Z,7.83
2024-02-27T17:53:11.384Z,8.27
2024-02-27T17:55:39.434Z,7.70
2024-02-27T17:58:08.992Z,8.20
2024-02-27T18:00:38.151Z,7.70
2024-02-27T18:03:07.089Z,7.83
2024-02-27T18:05:35.282Z,8.53
2024-02-27T18:08:03.644Z,8.17
2024-02-27T18:10:31.726Z,7.87
2024-02-27T18:12:59.769Z,7.47
2024-02-27T18:15:29.942Z,7.90
2024-02-27T18:17:58.055Z,8.23
2024-02-27T18:20:27.690Z,8.10
2024-02-27T18:22:55.769Z,8.10
2024-02-27T18:25:24.127Z,7.80
2024-02-27T18:27:52.543Z,7.70
2024-02-27T18:30:20.891Z,7.67
2024-02-27T18:32:50.353Z,8.73
2024-02-27T18:35:18.504Z,9.13
2024-02-27T18:37:46.598Z,8.63
2024-02-27T18:40:14.754Z,8.90
2024-02-27T18:42:42.818Z,8.13
2024-02-27T18:45:11.518Z,9.07
2024-02-27T18:47:39.665Z,8.67
2024-02-27T18:50:10.106Z,9.73
2024-02-27T18:52:38.223Z,10.00
2024-02-27T18:55:06.552Z,8.03
2024-02-27T18:57:34.741Z,8.77
2024-02-27T19:00:03.878Z,7.90
2024-02-27T19:02:31.931Z,7.83
2024-02-27T19:05:00.004Z,8.40
2024-02-27T19:07:30.288Z,8.43
2024-02-27T19:09:58.957Z,8.07
2024-02-27T19:12:27.238Z,8.10
2024-02-27T19:14:55.393Z,8.50
2024-02-27T19:17:23.549Z,8.33
2024-02-27T19:19:51.851Z,8.37
2024-02-27T19:22:21.953Z,8.73
2024-02-27T19:24:51.381Z,8.40
2024-02-27T19:27:19.462Z,9.63
2024-02-27T19:29:47.511Z,9.20
2024-02-27T19:32:15.618Z,8.70
2024-02-27T19:34:43.640Z,8.17
2024-02-27T19:37:11.689Z,8.90
2024-02-27T19:39:40.929Z,8.53
2024-02-27T19:42:10.471Z,8.37
2024-02-27T19:44:38.618Z,8.70
2024-02-27T19:47:09.549Z,8.90
2024-02-27T19:49:39.599Z,8.60
2024-02-27T19:52:08.500Z,8.90
2024-02-27T19:54:36.761Z,8.83
2024-02-27T19:57:05.698Z,8.33
2024-02-27T19:59:36.284Z,7.97
2024-02-27T20:02:04.880Z,8.10
2024-02-27T20:04:32.989Z,8.60
2024-02-27T20:07:03.160Z,8.20
2024-02-27T20:09:31.294Z,8.60
2024-02-27T20:11:59.586Z,8.20
2024-02-27T20:14:27.620Z,8.53
2024-02-27T20:16:57.044Z,9.37
2024-02-27T20:19:50.978Z,7.93
2024-02-27T20:22:19.201Z,8.93
2024-02-27T20:24:47.730Z,8.87
2024-02-27T20:27:16.208Z,8.13
2024-02-27T20:29:55.845Z,8.03
2024-02-27T20:32:28.777Z,8.23
2024-02-27T20:34:57.026Z,9.07
2024-02-27T20:37:25.422Z,9.40
2024-02-27T20:39:53.535Z,8.47
2024-02-27T20:42:21.579Z,8.90
2024-02-27T20:44:50.096Z,10.33
2024-02-27T20:47:18.264Z,8.83
2024-02-27T20:49:47.626Z,9.33
2024-02-27T20:52:15.704Z,7.93
2024-02-27T20:54:44.471Z,9.20
2024-02-27T20:57:12.627Z,8.30
2024-02-27T20:59:40.855Z,8.47
2024-02-27T21:02:09.332Z,8.93
2024-02-27T21:04:37.366Z,8.57
2024-02-27T21:07:07.290Z,9.67
2024-02-27T21:09:41.131Z,8.47
2024-02-27T21:12:09.717Z,8.13
2024-02-27T21:14:38.005Z,9.63
2024-02-27T21:17:06.224Z,8.67
2024-02-27T21:19:34.273Z,9.03
2024-02-27T21:22:02.377Z,8.80
2024-02-27T21:24:31.772Z,9.50
2024-02-27T21:26:59.845Z,8.43
2024-02-27T21:29:28.045Z,8.90
2024-02-27T21:31:56.307Z,8.70
2024-02-27T21:34:24.353Z,8.13
2024-02-27T21:36:54.092Z,9.07
2024-02-27T21:39:22.321Z,9.23
2024-02-27T21:41:51.737Z,8.73
2024-02-27T21:44:19.797Z,8.73
2024-02-27T21:46:47.845Z,9.87
2024-02-27T21:49:16.366Z,8.50
2024-02-27T21:51:49.425Z,9.73
2024-02-27T21:54:24.798Z,9.57
2024-02-27T21:56:54.207Z,8.13
2024-02-27T21:59:22.268Z,8.90
2024-02-27T22:01:50.613Z,9.00
2024-02-27T22:04:19.831Z,9.00
2024-02-27T22:06:47.921Z,8.53
2024-02-27T22:09:16.072Z,8.47
2024-02-27T22:11:44.157Z,8.93
2024-02-27T22:14:13.621Z,9.03
2024-02-27T22:16:41.794Z,8.87
2024-02-27T22:19:10.576Z,7.80
2024-02-27T22:21:39.335Z,8.40
2024-02-27T22:24:08.181Z,8.10
2024-02-27T22:26:36.980Z,8.93
2024-02-27T22:29:05.099Z,8.70
2024-02-27T22:31:34.775Z,7.80
2024-02-27T22:34:03.104Z,9.30
2024-02-27T22:36:31.329Z,7.77
2024-02-27T22:38:59.398Z,8.27
2024-02-27T22:41:27.497Z,8.07
2024-02-27T22:43:56.678Z,7.70
2024-02-27T22:46:26.453Z,7.57
2024-02-27T22:48:55.968Z,8.50
2024-02-27T22:51:24.143Z,9.00
2024-02-27T22:53:52.495Z,9.13
2024-02-27T22:56:20.696Z,8.10
2024-02-27T22:58:49.609Z,8.87
2024-02-27T23:01:17.720Z,8.10
2024-02-27T23:03:46.386Z,8.30
2024-02-27T23:06:40.528Z,8.13
2024-02-27T23:09:08.687Z,8.03
2024-02-27T23:11:36.869Z,8.40
2024-02-27T23:14:08.065Z,7.87
2024-02-27T23:16:37.681Z,9.27
2024-02-27T23:19:07.628Z,8.23
2024-02-27T23:21:37.495Z,7.30
2024-02-27T23:24:06.224Z,9.00
2024-02-27T23:26:34.265Z,7.83
2024-02-27T23:29:02.352Z,8.20
2024-02-27T23:31:30.800Z,7.83
2024-02-27T23:33:59.398Z,7.70
2024-02-27T23:36:27.482Z,7.97
2024-02-27T23:38:57.303Z,8.43
2024-02-27T23:41:25.320Z,8.17
2024-02-27T23:43:53.361Z,8.00
2024-02-27T23:46:22.160Z,8.10
2024-02-27T23:48:51.055Z,8.27
2024-02-27T23:51:19.215Z,8.33
2024-02-27T23:53:49.428Z,8.20
2024-02-27T23:56:18.814Z,8.47
2024-02-27T23:58:47.069Z,8.23
